• Join FlightAware (Why Join?)
  • Login
  • US Flag 
01:00PM EST


 

Airport Tracker/Info


-or-


 

Live Flight TrackerFlight Track Log ✈ ASQ5740 ✈ 15-Sep-2013 ✈ KGSP - KIAD

Flight Track Log - Related Links

Times and Time Zones

All times are in EDT time to prevent confusion due to time zone crossing. See the ASQ5740 flight status page for this flight to view local times or setup timezone preferences in your user account.

Time Position Orientation Groundspeed Altitude Reporting Facility
EDT Latitude Longitude Course Direction KTS MPH feet Rate Location/Type
03:23PM 35.1379 -81.9538 North  Level Estimated
03:23PM 35.0597 -82.0622 49° Northeast 259 298 7,300  Level Atlanta Center
03:24PM 35.2185 -81.8651 North  Level Estimated
03:24PM 35.1128 -81.9822 51° Northeast 296 341 9,600  Level Atlanta Center
03:25PM 35.2991 -81.7762 North  Level Estimated
03:25PM 35.1850 -81.9397 26° Northeast 287 330 11,300  Level Atlanta Center
03:26PM 35.3796 -81.6871 80° East  Level Estimated
03:26PM 35.2683 -81.9400 360° North 304 350 12,100  Level Atlanta Center
03:27PM 35.4600 -81.5979 71° East  Level Estimated
03:27PM 35.3400 -81.8542 44° Northeast 324 373 13,100  Level Atlanta Center
03:28PM 35.3836 -81.7358 66° East 349 402 14,400 1,380 Climbing Atlanta Center
03:29PM 35.4294 -81.6175 65° Northeast 369 425 15,900 1,320 Climbing Atlanta Center
03:30PM 35.4750 -81.4986 65° Northeast 374 430 17,100 1,080 Climbing Atlanta Center
03:31PM 35.5206 -81.3800 65° Northeast 379 436 18,100 1,140 Climbing Atlanta Center
03:32PM 35.5717 -81.2431 65° Northeast 379 436 19,400 1,140 Climbing Atlanta Center
03:33PM 35.6150 -81.1292 65° Northeast 396 456 20,400 900 Climbing Atlanta Center
03:34PM 35.6619 -81.0072 65° Northeast 396 456 21,300 960 Climbing Atlanta Center
03:35PM 35.7069 -80.8856 65° Northeast 391 450 22,400 1,140 Climbing Atlanta Center
03:36PM 35.7539 -80.7608 65° Northeast 391 450 23,600 1,200 Climbing Atlanta Center
03:37PM 35.7986 -80.6414 65° Northeast 386 444 24,800 900 Climbing Atlanta Center
03:38PM 35.8411 -80.5242 66° East 386 444 25,500 660 Climbing Atlanta Center
03:40PM 35.9325 -80.2839 65° Northeast 405 466 26,700 480 Climbing Washington Center
03:41PM 35.9792 -80.1558 66° East 405 466 27,000 120 Climbing Washington Center
03:42PM 36.0300 -80.0278 64° Northeast 405 466 27,000  Level Washington Center
03:43PM 36.0864 -79.9128 59° Northeast 411 473 27,000  Level Washington Center
03:44PM 36.1556 -79.7878 56° Northeast 428 493 27,000  Level Washington Center
03:45PM 36.2378 -79.6456 54° Northeast 456 525 27,000 -240 Level Washington Center
03:46PM 36.3000 -79.5275 57° Northeast 456 525 26,600 -540 Descending Washington Center
03:47PM 36.3772 -79.3972 54° Northeast 461 531 26,000 -600 Descending Washington Center
03:48PM 36.4506 -79.2589 57° Northeast 470 541 25,400 -540 Descending Washington Center
03:49PM 36.5364 -79.1078 55° Northeast 476 548 25,000 -240 Descending Washington Center
03:50PM 36.6067 -78.9892 54° Northeast 476 548 25,000  Level Washington Center
03:51PM 36.6858 -78.8347 57° Northeast 482 555 25,000  Level Washington Center
03:52PM 36.7606 -78.7006 55° Northeast 482 555 25,000 -120 Level Washington Center
03:53PM 36.8386 -78.5764 52° Northeast 471 542 24,800 -420 Descending Washington Center
03:54PM 36.9494 -78.4872 33° Northeast 456 525 24,200 -600 Descending Washington Center
03:55PM 37.0494 -78.4050 33° Northeast 469 540 23,600 -600 Descending Washington Center
03:56PM 37.1619 -78.3153 32° Northeast 474 545 23,100 -600 Descending Washington Center
03:57PM 37.2747 -78.2228 33° Northeast 474 545 22,500 -600 Descending Washington Center
03:58PM 37.3831 -78.1272 35° Northeast 479 551 22,000 -300 Descending Washington Center
03:59PM 37.4914 -78.0364 34° Northeast 469 540 22,000 -720 Level Washington Center
04:00PM 37.6017 -77.9431 34° Northeast 469 540 20,700 -1,680 Descending Washington Center
04:01PM 37.7078 -77.8519 34° Northeast 469 540 18,700 -1,920 Descending Washington Center
04:02PM 37.8094 -77.7656 34° Northeast 462 532 16,900 -1,920 Descending Washington Center
04:03PM 37.9047 -77.6842 34° Northeast 434 499 14,900 -1,980 Descending Washington Center
04:04PM 37.9978 -77.6022 35° Northeast 418 481 12,900 -2,100 Descending Washington Center
04:05PM 38.0908 -77.5283 32° Northeast 400 460 10,800 -1,500 Descending Washington Center
04:06PM 38.1756 -77.4564 34° Northeast 389 448 10,000 -480 Descending Washington Center
04:07PM 38.2572 -77.4322 13° North 327 376 9,900 -780 Descending Washington Center
04:08PM 38.3386 -77.4156 North 306 352 8,500 -1,440 Descending Washington Center
04:09PM 38.4183 -77.3989 North 294 338 7,100 -1,380 Descending Washington Center
04:10PM 38.4936 -77.3850 North 294 338 5,700 -1,020 Descending Washington Center
04:11PM 38.5689 -77.3708 North 283 326 5,000 -720 Descending Washington Center
04:12PM 38.6461 -77.3647 North 278 320 4,300 -480 Descending Washington Center
04:14PM 38.7667 -77.3500 North 267 307 4,000 -180 Descending Potomac TRACON
04:15PM 38.8333 -77.3500 360° North 252 290 4,000  Level Potomac TRACON
04:16PM 38.8833 -77.3500 360° North 247 284 4,000 -60 Level Potomac TRACON
04:17PM 38.9667 -77.3500 360° North 244 281 3,900 -540 Descending Potomac TRACON
04:18PM 39.0333 -77.3500 360° North 229 264 3,000 -480 Descending Potomac TRACON
04:18PM 39.0833 -77.3500 360° North 197 227 3,000  Level Potomac TRACON
04:19PM 39.1333 -77.3500 360° North 203 234 3,000  Level Potomac TRACON
04:20PM 39.1000 -77.4000 229° Southwest 183 211 3,000 -420 Level Potomac TRACON
04:21PM 39.0667 -77.4333 218° Southwest 152 175 2,200 -660 Descending Potomac TRACON
04:22PM 39.0333 -77.4333 180° South 140 161 1,700 -600 Descending Potomac TRACON
04:23PM 38.9833 -77.4333 180° South 140 161 1,100 -600 Descending Potomac TRACON